Edwardsburg, Michigan
Current Conditions -  °F | °C
As of 7:49 AM on Friday 24 Oct 2014 (Local Time) from KEKM Reporting Station
Overcast Overcast  
Wind Chill: 48°   Ceiling: 2700
Heat Index: 48°   Visibility: 10mi
Dew Point: 43°   Wind: 3mph
Humidity: 82%   Direction: 170°S
Pressure: 30.07"   Gusts: NA
Location:  41.8°N, 86.08°W
Report Text: KEKM 241149Z 17003KT 10SM OVC027 09/06 A3007
Loading
Personal Weather Stations






























Interactive Weather Map
Tropical Storm Tracking
New forecast layout! Learn more

10-Day Weather Forecast

Advertisements
Track Severe Weather on mobile